createdAt,value
2023-02-27T00:01:35.563Z,52.32
2023-02-27T00:04:03.821Z,51.80
2023-02-27T00:06:32.007Z,51.88
2023-02-27T00:09:00.284Z,51.62
2023-02-27T00:11:29.043Z,52.17
2023-02-27T00:13:57.545Z,52.34
2023-02-27T00:16:27.013Z,52.67
2023-02-27T00:18:57.010Z,52.97
2023-02-27T00:21:25.706Z,52.71
2023-02-27T00:23:53.961Z,52.44
2023-02-27T00:26:23.314Z,53.50
2023-02-27T00:28:51.363Z,53.14
2023-02-27T00:31:19.539Z,54.02
2023-02-27T00:33:48.961Z,53.81
2023-02-27T00:36:17.098Z,53.23
2023-02-27T00:38:45.150Z,53.80
2023-02-27T00:41:13.208Z,53.54
2023-02-27T00:43:41.399Z,52.89
2023-02-27T00:46:11.871Z,53.27
2023-02-27T00:48:39.918Z,53.61
2023-02-27T00:51:11.122Z,53.82
2023-02-27T00:53:39.281Z,54.16
2023-02-27T00:56:08.588Z,53.45
2023-02-27T00:58:36.569Z,54.82
2023-02-27T01:01:04.726Z,53.99
2023-02-27T01:03:32.723Z,54.15
2023-02-27T01:06:00.872Z,54.08
2023-02-27T01:08:30.438Z,54.04
2023-02-27T01:10:58.717Z,53.79
2023-02-27T01:13:26.899Z,54.15
2023-02-27T01:15:54.949Z,54.77
2023-02-27T01:18:23.043Z,54.36
2023-02-27T01:20:54.490Z,54.92
2023-02-27T01:23:23.695Z,54.71
2023-02-27T01:25:53.065Z,54.56
2023-02-27T01:28:21.223Z,54.49
2023-02-27T01:30:49.671Z,55.32
2023-02-27T01:33:17.687Z,54.26
2023-02-27T01:35:45.860Z,54.69
2023-02-27T01:38:13.941Z,55.23
2023-02-27T01:40:43.610Z,54.96
2023-02-27T01:43:17.549Z,55.62
2023-02-27T01:45:48.707Z,54.71
2023-02-27T01:48:20.109Z,54.77
2023-02-27T01:50:53.837Z,54.59
2023-02-27T01:53:25.826Z,55.11
2023-02-27T01:55:57.107Z,54.98
2023-02-27T01:58:27.775Z,55.24
2023-02-27T02:00:56.798Z,55.27
2023-02-27T02:03:32.141Z,55.18
2023-02-27T02:06:03.263Z,55.98
2023-02-27T02:08:36.652Z,55.95
2023-02-27T02:11:06.803Z,55.73
2023-02-27T02:13:37.919Z,55.13
2023-02-27T02:16:28.598Z,55.10
2023-02-27T02:19:07.276Z,55.35
2023-02-27T02:22:19.840Z,55.34
2023-02-27T02:25:35.732Z,55.91
2023-02-27T02:28:21.111Z,56.11
2023-02-27T02:31:38.427Z,55.14
2023-02-27T02:34:35.735Z,56.29
2023-02-27T02:37:51.707Z,55.83
2023-02-27T02:40:31.768Z,55.38
2023-02-27T02:43:11.114Z,55.91
2023-02-27T02:45:49.489Z,56.36
2023-02-27T02:48:26.552Z,55.83
2023-02-27T02:51:02.708Z,55.48
2023-02-27T02:53:38.153Z,56.45
2023-02-27T02:56:16.814Z,56.69
2023-02-27T02:58:50.498Z,56.69
2023-02-27T03:01:26.114Z,56.96
2023-02-27T03:04:01.037Z,56.28
2023-02-27T03:06:33.614Z,56.20
2023-02-27T03:09:09.169Z,55.77
2023-02-27T03:11:44.849Z,56.17
2023-02-27T03:14:19.568Z,55.60
2023-02-27T03:16:53.185Z,56.63
2023-02-27T03:19:26.654Z,56.38
2023-02-27T03:22:05.287Z,56.04
2023-02-27T03:24:39.753Z,55.93
2023-02-27T03:27:10.580Z,56.25
2023-02-27T03:29:44.947Z,56.21
2023-02-27T03:32:18.677Z,56.79
2023-02-27T03:34:48.070Z,56.98
2023-02-27T03:37:30.052Z,56.14
2023-02-27T03:40:07.835Z,55.77
2023-02-27T03:42:43.222Z,56.37
2023-02-27T03:45:25.424Z,56.13
2023-02-27T03:47:54.181Z,56.01
2023-02-27T03:50:23.157Z,56.04
2023-02-27T03:52:51.922Z,56.00
2023-02-27T03:55:26.078Z,56.50
2023-02-27T03:57:56.478Z,56.07
2023-02-27T04:00:27.454Z,55.86
2023-02-27T04:03:00.561Z,56.48
2023-02-27T04:05:30.723Z,55.96
2023-02-27T04:08:40.650Z,57.23
2023-02-27T04:11:41.414Z,57.60
2023-02-27T04:14:36.322Z,56.45
2023-02-27T04:17:22.924Z,56.82
2023-02-27T04:20:25.370Z,57.08
2023-02-27T04:22:59.109Z,57.31
2023-02-27T04:25:52.338Z,57.68
2023-02-27T04:28:29.062Z,56.60
2023-02-27T04:31:12.479Z,56.94
2023-02-27T04:33:47.204Z,57.38
2023-02-27T04:36:24.238Z,56.66
2023-02-27T04:39:00.388Z,56.55
2023-02-27T04:41:35.495Z,56.76
2023-02-27T04:44:06.543Z,56.92
2023-02-27T04:46:40.414Z,56.32
2023-02-27T04:49:14.256Z,56.79
2023-02-27T04:51:52.236Z,56.60
2023-02-27T04:54:27.810Z,57.35
2023-02-27T04:57:02.141Z,56.47
2023-02-27T04:59:36.404Z,57.14
2023-02-27T05:02:14.322Z,56.93
2023-02-27T05:04:45.947Z,56.85
2023-02-27T05:07:18.834Z,57.78
2023-02-27T05:09:55.276Z,56.82
2023-02-27T05:12:30.469Z,57.00
2023-02-27T05:15:04.547Z,56.78
2023-02-27T05:17:39.138Z,57.47
2023-02-27T05:20:09.311Z,57.68
2023-02-27T05:22:46.839Z,57.44
2023-02-27T05:25:24.627Z,56.39
2023-02-27T05:27:59.604Z,56.39
2023-02-27T05:30:36.442Z,56.67
2023-02-27T05:33:11.419Z,57.04
2023-02-27T05:36:12.032Z,56.89
2023-02-27T05:39:09.797Z,56.92
2023-02-27T05:41:43.172Z,57.03
2023-02-27T05:44:15.789Z,56.45
2023-02-27T05:46:49.211Z,57.17
2023-02-27T05:49:24.741Z,57.08
2023-02-27T05:51:57.158Z,57.17
2023-02-27T05:54:34.918Z,56.91
2023-02-27T05:57:08.530Z,55.99
2023-02-27T05:59:43.576Z,56.41
2023-02-27T06:02:12.949Z,57.01
2023-02-27T06:04:42.706Z,56.99
2023-02-27T06:07:10.730Z,56.68
2023-02-27T06:09:38.856Z,56.65
2023-02-27T06:12:07.186Z,57.34
2023-02-27T06:14:35.263Z,56.51
2023-02-27T06:17:03.531Z,57.50
2023-02-27T06:19:31.763Z,57.29
2023-02-27T06:22:01.097Z,57.05
2023-02-27T06:24:29.194Z,57.14
2023-02-27T06:26:57.242Z,57.62
2023-02-27T06:29:25.467Z,56.96
2023-02-27T06:31:53.586Z,56.40
2023-02-27T06:34:21.610Z,56.11
2023-02-27T06:36:49.651Z,57.16
2023-02-27T06:39:18.983Z,56.31
2023-02-27T06:41:47.052Z,56.90
2023-02-27T06:44:15.319Z,56.84
2023-02-27T06:46:43.344Z,57.66
2023-02-27T06:49:11.441Z,56.75
2023-02-27T06:51:39.532Z,57.69
2023-02-27T06:54:08.051Z,56.60
2023-02-27T06:56:37.404Z,56.67
2023-02-27T06:59:05.877Z,56.62
2023-02-27T07:01:34.138Z,56.40
2023-02-27T07:04:02.211Z,58.25
2023-02-27T07:07:35.189Z,57.51
2023-02-27T07:09:20.522Z,58.12
2023-02-27T07:11:50.596Z,57.45
2023-02-27T07:14:18.620Z,58.06
2023-02-27T07:16:50.819Z,57.52
2023-02-27T07:19:18.900Z,57.46
2023-02-27T07:21:47.032Z,56.94
2023-02-27T07:24:15.043Z,57.80
2023-02-27T07:26:43.377Z,57.20
2023-02-27T07:29:14.753Z,57.76
2023-02-27T07:31:43.893Z,57.97
2023-02-27T07:34:13.750Z,58.22
2023-02-27T07:36:42.060Z,57.33
2023-02-27T07:39:10.675Z,57.74
2023-02-27T07:41:38.748Z,57.00
2023-02-27T07:44:08.586Z,56.14
2023-02-27T07:46:38.086Z,56.39
2023-02-27T07:49:06.193Z,57.10
2023-02-27T07:51:36.468Z,56.64
2023-02-27T07:54:08.086Z,56.72
2023-02-27T07:56:36.249Z,56.97
2023-02-27T07:59:04.609Z,56.75
2023-02-27T08:01:32.662Z,55.97
2023-02-27T08:04:02.332Z,56.00
2023-02-27T08:06:30.714Z,56.08
2023-02-27T08:08:58.786Z,55.76
2023-02-27T08:11:27.007Z,54.50
2023-02-27T08:14:00.432Z,54.69
2023-02-27T08:16:30.833Z,54.55
2023-02-27T08:18:59.718Z,54.63
2023-02-27T08:21:31.130Z,54.16
2023-02-27T08:23:59.593Z,54.37
2023-02-27T08:26:27.981Z,54.26
2023-02-27T08:28:56.111Z,53.35
2023-02-27T08:31:24.501Z,53.32
2023-02-27T08:34:00.975Z,53.31
2023-02-27T08:36:37.853Z,53.61
2023-02-27T08:39:06.696Z,52.90
2023-02-27T08:41:35.149Z,52.73
2023-02-27T08:44:03.242Z,52.62
2023-02-27T08:46:31.318Z,52.20
2023-02-27T08:48:59.378Z,52.47
2023-02-27T08:51:27.993Z,51.14
2023-02-27T08:53:59.012Z,51.73
2023-02-27T08:56:28.073Z,51.99
2023-02-27T08:58:56.905Z,51.97
2023-02-27T09:01:27.296Z,51.64
2023-02-27T09:03:55.739Z,52.03
2023-02-27T09:06:26.157Z,51.68
2023-02-27T09:08:54.481Z,50.73
2023-02-27T09:11:24.070Z,50.54
2023-02-27T09:13:52.820Z,49.97
2023-02-27T09:16:22.151Z,50.27
2023-02-27T09:18:50.946Z,50.50
2023-02-27T09:21:20.418Z,49.35
2023-02-27T09:23:48.429Z,48.74
2023-02-27T09:26:17.130Z,49.11
2023-02-27T09:28:46.534Z,48.74
2023-02-27T09:31:14.738Z,48.50
2023-02-27T09:33:42.865Z,48.80
2023-02-27T09:36:11.429Z,48.49
2023-02-27T09:38:41.388Z,47.89
2023-02-27T09:41:36.641Z,47.38
2023-02-27T09:44:08.248Z,47.90
2023-02-27T09:46:36.299Z,47.66
2023-02-27T09:49:05.535Z,47.54
2023-02-27T09:51:33.761Z,46.66
2023-02-27T09:54:03.402Z,47.10
2023-02-27T09:56:37.146Z,45.90
2023-02-27T09:59:20.578Z,46.68
2023-02-27T10:01:54.290Z,45.84
2023-02-27T10:04:40.621Z,46.66
2023-02-27T10:07:17.658Z,45.85
2023-02-27T10:10:00.464Z,45.90
2023-02-27T10:12:51.004Z,45.93
2023-02-27T10:15:27.156Z,44.27
2023-02-27T10:18:07.083Z,45.10
2023-02-27T10:20:44.777Z,44.71
2023-02-27T10:23:17.429Z,43.82
2023-02-27T10:25:48.715Z,44.01
2023-02-27T10:28:19.931Z,43.97
2023-02-27T10:30:51.789Z,44.13
2023-02-27T10:33:28.314Z,42.82
2023-02-27T10:35:57.765Z,43.09
2023-02-27T10:38:34.332Z,42.54
2023-02-27T10:41:04.472Z,43.12
2023-02-27T10:43:32.656Z,42.50
2023-02-27T10:46:08.191Z,42.31
2023-02-27T10:48:36.328Z,43.14
2023-02-27T10:51:27.135Z,42.02
2023-02-27T10:54:24.990Z,41.22
2023-02-27T10:56:56.680Z,41.91
2023-02-27T10:59:29.202Z,42.61
2023-02-27T11:02:02.148Z,42.07
2023-02-27T11:04:35.282Z,40.69
2023-02-27T11:07:08.897Z,42.25
2023-02-27T11:09:38.036Z,41.69
2023-02-27T11:12:23.629Z,40.96
2023-02-27T11:14:55.491Z,41.09
2023-02-27T11:17:29.790Z,41.37
2023-02-27T11:19:59.388Z,41.48
2023-02-27T11:22:30.079Z,40.85
2023-02-27T11:25:25.512Z,40.81
2023-02-27T11:28:12.454Z,39.10
2023-02-27T11:30:43.286Z,40.34
2023-02-27T11:33:20.887Z,40.21
2023-02-27T11:35:57.632Z,40.15
2023-02-27T11:38:29.926Z,41.10
2023-02-27T11:41:00.528Z,41.26
2023-02-27T11:43:31.838Z,41.66
2023-02-27T11:46:05.117Z,40.39
2023-02-27T11:48:54.943Z,39.65
2023-02-27T11:51:32.843Z,38.90
2023-02-27T11:54:19.123Z,39.00
2023-02-27T11:57:04.215Z,39.25
2023-02-27T11:59:44.498Z,39.17
2023-02-27T12:02:26.210Z,39.40
2023-02-27T12:05:01.437Z,39.63
2023-02-27T12:07:36.943Z,39.51
2023-02-27T12:10:14.374Z,38.90
2023-02-27T12:12:48.972Z,38.75
2023-02-27T12:15:26.958Z,40.01
2023-02-27T12:18:06.177Z,39.25
2023-02-27T12:20:45.509Z,39.48
2023-02-27T12:23:22.948Z,38.94
2023-02-27T12:25:57.024Z,39.14
2023-02-27T12:28:44.514Z,39.96
2023-02-27T12:31:36.942Z,40.55
2023-02-27T12:34:14.953Z,40.48
2023-02-27T12:36:44.351Z,41.06
2023-02-27T12:39:20.214Z,39.60
2023-02-27T12:42:36.240Z,39.80
2023-02-27T12:45:23.565Z,40.58
2023-02-27T12:48:04.328Z,41.85
2023-02-27T12:50:48.888Z,41.11
2023-02-27T12:53:39.982Z,40.71
2023-02-27T12:56:16.267Z,40.74
2023-02-27T12:58:55.737Z,40.76
2023-02-27T13:01:38.244Z,41.32
2023-02-27T13:04:19.119Z,42.06
2023-02-27T13:06:54.274Z,42.76
2023-02-27T13:09:35.429Z,41.19
2023-02-27T13:12:15.685Z,41.68
2023-02-27T13:14:50.509Z,41.29
2023-02-27T13:17:24.902Z,41.78
2023-02-27T13:19:57.582Z,41.01
2023-02-27T13:22:39.103Z,41.71
2023-02-27T13:25:15.440Z,41.41
2023-02-27T13:27:48.138Z,41.48
2023-02-27T13:30:25.450Z,41.08
2023-02-27T13:33:02.560Z,41.15
2023-02-27T13:35:42.321Z,41.99
2023-02-27T13:38:42.455Z,42.07
2023-02-27T13:41:39.179Z,41.74
2023-02-27T13:44:50.279Z,41.66
2023-02-27T13:47:49.997Z,42.00
2023-02-27T13:50:54.052Z,42.29
2023-02-27T13:53:24.474Z,42.09
2023-02-27T13:55:57.494Z,42.03
2023-02-27T13:58:27.060Z,41.38
2023-02-27T14:03:58.741Z,42.02
2023-02-27T14:06:31.757Z,43.03
2023-02-27T14:09:14.147Z,42.22
2023-02-27T14:11:54.911Z,41.48
2023-02-27T14:14:46.888Z,42.02
2023-02-27T14:17:37.086Z,41.91
2023-02-27T14:20:12.755Z,40.91
2023-02-27T14:23:19.651Z,41.52
2023-02-27T14:25:53.106Z,41.38
2023-02-27T14:28:30.803Z,41.32
2023-02-27T14:31:03.876Z,41.32
2023-02-27T14:33:42.853Z,41.62
2023-02-27T14:36:16.929Z,41.04
2023-02-27T14:38:45.401Z,41.66
2023-02-27T14:41:33.321Z,41.55
2023-02-27T14:44:02.145Z,41.60
2023-02-27T14:46:36.865Z,42.32
2023-02-27T14:49:08.382Z,40.86
2023-02-27T14:51:38.719Z,41.08
2023-02-27T14:54:14.066Z,41.04
2023-02-27T14:56:42.802Z,41.84
2023-02-27T14:59:24.942Z,41.50
2023-02-27T15:01:58.030Z,41.85
2023-02-27T15:04:29.526Z,41.89
2023-02-27T15:07:00.459Z,41.71
2023-02-27T15:09:35.759Z,41.97
2023-02-27T15:12:04.981Z,41.05
2023-02-27T15:14:37.742Z,41.29
2023-02-27T15:17:17.987Z,41.14
2023-02-27T15:19:52.034Z,41.31
2023-02-27T15:22:38.068Z,41.57
2023-02-27T15:25:08.443Z,41.50
2023-02-27T15:27:38.206Z,41.14
2023-02-27T15:30:08.739Z,41.88
2023-02-27T15:32:43.117Z,42.13
2023-02-27T15:35:19.899Z,41.58
2023-02-27T15:37:54.299Z,40.94
2023-02-27T15:40:26.835Z,39.50
2023-02-27T15:42:56.460Z,39.86
2023-02-27T15:45:28.904Z,40.01
2023-02-27T15:47:58.758Z,40.29
2023-02-27T15:50:32.658Z,39.93
2023-02-27T15:53:06.291Z,40.38
2023-02-27T15:55:38.357Z,40.94
2023-02-27T15:58:20.494Z,40.94
2023-02-27T16:00:48.865Z,40.42
2023-02-27T16:03:24.438Z,41.68
2023-02-27T16:05:54.059Z,40.91
2023-02-27T16:08:24.215Z,40.49
2023-02-27T16:10:52.970Z,41.06
2023-02-27T16:13:23.537Z,39.86
2023-02-27T16:16:03.482Z,40.79
2023-02-27T16:18:39.760Z,41.27
2023-02-27T16:21:14.350Z,41.21
2023-02-27T16:23:43.894Z,41.89
2023-02-27T16:26:33.045Z,41.74
2023-02-27T16:29:03.843Z,41.48
2023-02-27T16:31:35.633Z,41.27
2023-02-27T16:34:17.297Z,41.65
2023-02-27T16:36:56.624Z,41.27
2023-02-27T16:39:25.382Z,40.80
2023-02-27T16:41:54.263Z,41.11
2023-02-27T16:44:24.276Z,40.40
2023-02-27T16:46:53.013Z,40.15
2023-02-27T16:49:25.632Z,39.84
2023-02-27T16:51:53.835Z,40.02
2023-02-27T16:54:22.164Z,39.87
2023-02-27T16:56:51.553Z,40.23
2023-02-27T16:59:30.736Z,39.68
2023-02-27T17:02:01.104Z,39.73
2023-02-27T17:04:31.158Z,40.11
2023-02-27T17:07:05.348Z,40.28
2023-02-27T17:09:35.172Z,39.77
2023-02-27T17:12:03.248Z,40.16
2023-02-27T17:14:31.290Z,40.44
2023-02-27T17:16:59.418Z,40.81
2023-02-27T17:19:27.756Z,39.66
2023-02-27T17:21:57.304Z,40.43
2023-02-27T17:24:26.160Z,40.00
2023-02-27T17:26:54.265Z,40.64
2023-02-27T17:29:24.070Z,40.35
2023-02-27T17:31:52.905Z,40.00
2023-02-27T17:34:21.003Z,39.92
2023-02-27T17:36:50.361Z,40.46
2023-02-27T17:39:19.711Z,40.22
2023-02-27T17:41:48.904Z,40.11
2023-02-27T17:44:17.284Z,40.75
2023-02-27T17:46:45.659Z,39.73
2023-02-27T17:49:14.116Z,39.67
2023-02-27T17:51:42.221Z,38.54
2023-02-27T17:54:10.625Z,39.92
2023-02-27T17:56:40.368Z,39.88
2023-02-27T17:59:08.750Z,38.87
2023-02-27T18:01:36.888Z,40.02
2023-02-27T18:04:06.977Z,40.27
2023-02-27T18:06:35.022Z,40.28
2023-02-27T18:09:03.122Z,40.47
2023-02-27T18:11:31.254Z,40.51
2023-02-27T18:14:01.421Z,40.91
2023-02-27T18:16:29.980Z,41.11
2023-02-27T18:18:58.262Z,40.46
2023-02-27T18:21:26.332Z,40.48
2023-02-27T18:23:55.840Z,40.85
2023-02-27T18:26:30.294Z,40.44
2023-02-27T18:29:02.876Z,41.42
2023-02-27T18:31:33.663Z,40.57
2023-02-27T18:34:02.666Z,40.78
2023-02-27T18:36:32.215Z,41.22
2023-02-27T18:39:00.989Z,40.79
2023-02-27T18:41:30.099Z,40.91
2023-02-27T18:43:59.317Z,41.33
2023-02-27T18:46:29.452Z,40.64
2023-02-27T18:48:57.826Z,41.83
2023-02-27T18:51:26.838Z,41.54
2023-02-27T18:53:55.338Z,40.70
2023-02-27T18:56:26.500Z,41.63
2023-02-27T18:58:58.213Z,41.36
2023-02-27T19:01:31.087Z,41.47
2023-02-27T19:04:03.932Z,41.12
2023-02-27T19:06:34.164Z,40.86
2023-02-27T19:09:04.468Z,41.41
2023-02-27T19:11:33.936Z,41.44
2023-02-27T19:14:03.994Z,41.08
2023-02-27T19:16:34.871Z,41.69
2023-02-27T19:19:04.937Z,41.18
2023-02-27T19:21:33.788Z,41.78
2023-02-27T19:24:02.455Z,42.26
2023-02-27T19:26:33.454Z,41.34
2023-02-27T19:29:01.478Z,41.85
2023-02-27T19:31:29.767Z,42.39
2023-02-27T19:33:59.257Z,42.23
2023-02-27T19:36:30.449Z,41.77
2023-02-27T19:38:59.270Z,42.25
2023-02-27T19:41:27.757Z,41.68
2023-02-27T19:43:57.634Z,42.15
2023-02-27T19:46:28.926Z,42.37
2023-02-27T19:49:02.900Z,41.74
2023-02-27T19:51:31.455Z,41.52
2023-02-27T19:53:59.858Z,41.54
2023-02-27T19:56:30.163Z,41.22
2023-02-27T19:59:00.420Z,41.27
2023-02-27T20:01:31.431Z,41.66
2023-02-27T20:04:01.977Z,40.56
2023-02-27T20:06:33.226Z,40.47
2023-02-27T20:09:01.561Z,40.60
2023-02-27T20:11:31.486Z,39.99
2023-02-27T20:13:59.985Z,41.16
2023-02-27T20:16:30.576Z,40.79
2023-02-27T20:19:00.375Z,41.26
2023-02-27T20:21:29.534Z,41.41
2023-02-27T20:23:58.586Z,41.04
2023-02-27T20:26:30.712Z,41.41
2023-02-27T20:29:01.968Z,41.22
2023-02-27T20:31:33.415Z,41.36
2023-02-27T20:34:05.892Z,41.41
2023-02-27T20:36:35.438Z,41.08
2023-02-27T20:39:04.841Z,41.36
2023-02-27T20:41:34.569Z,41.40
2023-02-27T20:44:02.852Z,41.75
2023-02-27T20:46:31.861Z,41.67
2023-02-27T20:49:03.766Z,42.21
2023-02-27T20:51:36.085Z,42.13
2023-02-27T20:54:07.819Z,42.47
2023-02-27T20:56:40.537Z,42.40
2023-02-27T20:59:13.171Z,42.17
2023-02-27T21:01:41.615Z,42.38
2023-02-27T21:04:11.188Z,42.40
2023-02-27T21:06:39.960Z,42.23
2023-02-27T21:09:08.068Z,42.49
2023-02-27T21:11:36.140Z,42.66
2023-02-27T21:14:09.106Z,42.74
2023-02-27T21:16:37.689Z,42.47
2023-02-27T21:19:07.388Z,42.47
2023-02-27T21:21:38.142Z,42.35
2023-02-27T21:24:07.260Z,42.66
2023-02-27T21:26:38.777Z,42.71
2023-02-27T21:29:10.617Z,43.19
2023-02-27T21:31:40.923Z,42.76
2023-02-27T21:34:12.831Z,42.76
2023-02-27T21:36:45.630Z,42.79
2023-02-27T21:39:16.400Z,42.63
2023-02-27T21:41:45.344Z,42.80
2023-02-27T21:44:15.548Z,43.05
2023-02-27T21:46:45.168Z,43.03
2023-02-27T21:49:18.803Z,43.16
2023-02-27T21:51:48.247Z,42.96
2023-02-27T21:54:18.877Z,43.83
2023-02-27T21:56:49.092Z,43.25
2023-02-27T21:59:19.235Z,43.41
2023-02-27T22:01:48.504Z,43.15
2023-02-27T22:04:18.948Z,43.38
2023-02-27T22:06:49.634Z,43.40
2023-02-27T22:09:18.177Z,43.25
2023-02-27T22:11:46.408Z,43.73
2023-02-27T22:14:14.864Z,44.03
2023-02-27T22:16:43.361Z,44.08
2023-02-27T22:19:14.828Z,43.64
2023-02-27T22:21:42.884Z,43.23
2023-02-27T22:24:12.613Z,43.92
2023-02-27T22:26:41.563Z,43.96
2023-02-27T22:29:09.710Z,44.05
2023-02-27T22:31:39.529Z,44.18
2023-02-27T22:34:12.162Z,44.22
2023-02-27T22:36:42.088Z,44.69
2023-02-27T22:39:13.308Z,44.61
2023-02-27T22:41:43.516Z,44.57
2023-02-27T22:44:15.391Z,43.99
2023-02-27T22:46:46.291Z,44.13
2023-02-27T22:49:17.863Z,44.37
2023-02-27T22:51:46.620Z,44.39
2023-02-27T22:54:17.332Z,44.35
2023-02-27T22:56:45.762Z,44.85
2023-02-27T22:59:14.962Z,44.30
2023-02-27T23:01:43.108Z,44.85
2023-02-27T23:04:12.700Z,44.58
2023-02-27T23:06:42.943Z,44.48
2023-02-27T23:09:18.184Z,44.97
2023-02-27T23:11:47.151Z,44.87
2023-02-27T23:14:15.688Z,44.80
2023-02-27T23:16:45.456Z,44.90
2023-02-27T23:19:15.788Z,45.27
2023-02-27T23:21:44.110Z,45.15
2023-02-27T23:24:14.448Z,44.67
2023-02-27T23:26:47.180Z,45.36
2023-02-27T23:29:15.902Z,45.03
2023-02-27T23:31:44.480Z,45.13
2023-02-27T23:34:12.826Z,45.96
2023-02-27T23:36:41.277Z,45.04
2023-02-27T23:39:10.338Z,45.20
2023-02-27T23:41:38.388Z,45.98
2023-02-27T23:44:25.432Z,45.75
2023-02-27T23:46:53.569Z,45.95
2023-02-27T23:49:21.714Z,45.69
2023-02-27T23:51:49.721Z,45.58
2023-02-27T23:54:17.811Z,45.73
2023-02-27T23:56:48.505Z,46.00
2023-02-27T23:59:17.865Z,45.42
